sensor_id;sensor_type;location;lat;lon;timestamp;temperature;humidity
5828;DHT22;42583;50.240;8.444;2023-04-25T00:06:24;6.70;99.90
5828;DHT22;42583;50.240;8.444;2023-04-25T00:21:26;6.70;99.90
5828;DHT22;42583;50.240;8.444;2023-04-25T00:36:28;6.70;99.90
5828;DHT22;42583;50.240;8.444;2023-04-25T00:51:29;6.60;99.90
5828;DHT22;42583;50.240;8.444;2023-04-25T01:06:31;6.40;99.90
5828;DHT22;42583;50.240;8.444;2023-04-25T01:21:35;6.40;99.90
5828;DHT22;42583;50.240;8.444;2023-04-25T01:36:39;6.30;99.90
5828;DHT22;42583;50.240;8.444;2023-04-25T01:51:40;6.30;99.90
5828;DHT22;42583;50.240;8.444;2023-04-25T02:06:41;6.10;99.90
5828;DHT22;42583;50.240;8.444;2023-04-25T02:21:41;6.10;99.90
5828;DHT22;42583;50.240;8.444;2023-04-25T02:36:42;6.00;99.90
5828;DHT22;42583;50.240;8.444;2023-04-25T02:51:42;5.90;99.90
5828;DHT22;42583;50.240;8.444;2023-04-25T03:06:46;5.90;99.90
5828;DHT22;42583;50.240;8.444;2023-04-25T03:21:46;5.80;99.90
5828;DHT22;42583;50.240;8.444;2023-04-25T03:36:50;5.60;99.90
5828;DHT22;42583;50.240;8.444;2023-04-25T03:51:54;5.30;99.90
5828;DHT22;42583;50.240;8.444;2023-04-25T04:06:54;5.10;99.90
5828;DHT22;42583;50.240;8.444;2023-04-25T04:21:55;5.10;99.90
5828;DHT22;42583;50.240;8.444;2023-04-25T04:36:59;5.00;99.90
5828;DHT22;42583;50.240;8.444;2023-04-25T04:52:00;5.00;99.90
5828;DHT22;42583;50.240;8.444;2023-04-25T05:07:01;4.90;99.90
5828;DHT22;42583;50.240;8.444;2023-04-25T05:22:02;5.00;99.90
5828;DHT22;42583;50.240;8.444;2023-04-25T05:37:03;5.00;99.90
5828;DHT22;42583;50.240;8.444;2023-04-25T05:52:03;5.00;99.90
5828;DHT22;42583;50.240;8.444;2023-04-25T06:07:04;5.10;99.90
5828;DHT22;42583;50.240;8.444;2023-04-25T06:22:05;5.20;99.90
5828;DHT22;42583;50.240;8.444;2023-04-25T06:37:07;5.50;99.90
5828;DHT22;42583;50.240;8.444;2023-04-25T06:52:08;6.10;99.90
5828;DHT22;42583;50.240;8.444;2023-04-25T07:07:09;6.50;99.90
5828;DHT22;42583;50.240;8.444;2023-04-25T07:22:09;6.80;99.90
5828;DHT22;42583;50.240;8.444;2023-04-25T07:37:10;7.60;99.90
5828;DHT22;42583;50.240;8.444;2023-04-25T07:52:10;7.60;99.90
5828;DHT22;42583;50.240;8.444;2023-04-25T08:07:11;7.80;99.90
5828;DHT22;42583;50.240;8.444;2023-04-25T08:22:11;8.20;99.90
5828;DHT22;42583;50.240;8.444;2023-04-25T08:37:13;8.30;99.90
5828;DHT22;42583;50.240;8.444;2023-04-25T08:52:14;9.30;99.90
5828;DHT22;42583;50.240;8.444;2023-04-25T09:07:15;9.60;99.90
5828;DHT22;42583;50.240;8.444;2023-04-25T09:22:21;9.90;99.90
5828;DHT22;42583;50.240;8.444;2023-04-25T09:37:31;10.60;99.90
5828;DHT22;42583;50.240;8.444;2023-04-25T09:52:32;11.70;97.10
5828;DHT22;42583;50.240;8.444;2023-04-25T10:07:36;11.50;92.90
5828;DHT22;42583;50.240;8.444;2023-04-25T10:22:42;10.70;92.20
5828;DHT22;42583;50.240;8.444;2023-04-25T10:53:14;9.30;92.60
5828;DHT22;42583;50.240;8.444;2023-04-25T11:08:24;9.10;92.40
5828;DHT22;42583;50.240;8.444;2023-04-25T11:23:30;9.10;92.10
5828;DHT22;42583;50.240;8.444;2023-04-25T11:38:31;10.60;87.90
5828;DHT22;42583;50.240;8.444;2023-04-25T11:53:32;11.90;81.80
5828;DHT22;42583;50.240;8.444;2023-04-25T12:08:32;10.70;78.20
5828;DHT22;42583;50.240;8.444;2023-04-25T12:23:38;9.50;79.50
5828;DHT22;42583;50.240;8.444;2023-04-25T12:38:41;9.30;82.60
5828;DHT22;42583;50.240;8.444;2023-04-25T12:53:42;11.50;83.00
5828;DHT22;42583;50.240;8.444;2023-04-25T13:08:43;13.30;75.00
5828;DHT22;42583;50.240;8.444;2023-04-25T13:23:43;13.40;67.50
5828;DHT22;42583;50.240;8.444;2023-04-25T13:38:47;13.20;67.60
5828;DHT22;42583;50.240;8.444;2023-04-25T13:53:59;14.60;65.60
5828;DHT22;42583;50.240;8.444;2023-04-25T14:08:59;16.80;57.90
5828;DHT22;42583;50.240;8.444;2023-04-25T14:24:01;15.30;52.00
5828;DHT22;42583;50.240;8.444;2023-04-25T14:39:02;13.00;53.60
5828;DHT22;42583;50.240;8.444;2023-04-25T14:54:03;12.10;54.70
5828;DHT22;42583;50.240;8.444;2023-04-25T15:09:04;12.00;55.50
5828;DHT22;42583;50.240;8.444;2023-04-25T15:24:05;11.90;56.30
5828;DHT22;42583;50.240;8.444;2023-04-25T15:39:05;11.60;54.10
5828;DHT22;42583;50.240;8.444;2023-04-25T15:54:06;11.10;54.90
5828;DHT22;42583;50.240;8.444;2023-04-25T16:09:09;10.90;55.10
5828;DHT22;42583;50.240;8.444;2023-04-25T16:24:10;10.60;55.10
5828;DHT22;42583;50.240;8.444;2023-04-25T16:39:10;10.40;56.10
5828;DHT22;42583;50.240;8.444;2023-04-25T16:54:11;10.00;55.50
5828;DHT22;42583;50.240;8.444;2023-04-25T17:09:12;9.80;55.70
5828;DHT22;42583;50.240;8.444;2023-04-25T17:24:12;9.40;55.80
5828;DHT22;42583;50.240;8.444;2023-04-25T17:39:16;9.00;56.20
5828;DHT22;42583;50.240;8.444;2023-04-25T17:54:17;8.60;56.60
5828;DHT22;42583;50.240;8.444;2023-04-25T18:09:17;8.10;57.50
5828;DHT22;42583;50.240;8.444;2023-04-25T18:24:23;7.80;58.30
5828;DHT22;42583;50.240;8.444;2023-04-25T18:39:26;7.50;58.60
5828;DHT22;42583;50.240;8.444;2023-04-25T18:54:26;7.00;58.60
5828;DHT22;42583;50.240;8.444;2023-04-25T19:09:34;6.70;58.90
5828;DHT22;42583;50.240;8.444;2023-04-25T19:24:34;6.50;59.20
5828;DHT22;42583;50.240;8.444;2023-04-25T19:39:35;6.30;59.90
5828;DHT22;42583;50.240;8.444;2023-04-25T19:54:36;6.00;60.30
5828;DHT22;42583;50.240;8.444;2023-04-25T20:09:36;5.70;60.70
5828;DHT22;42583;50.240;8.444;2023-04-25T20:24:38;5.50;61.50
5828;DHT22;42583;50.240;8.444;2023-04-25T20:39:39;5.40;62.00
5828;DHT22;42583;50.240;8.444;2023-04-25T20:54:40;5.30;62.80
5828;DHT22;42583;50.240;8.444;2023-04-25T21:09:41;5.20;63.70
5828;DHT22;42583;50.240;8.444;2023-04-25T21:24:44;5.40;64.70
5828;DHT22;42583;50.240;8.444;2023-04-25T21:39:46;5.40;65.10
5828;DHT22;42583;50.240;8.444;2023-04-25T21:54:47;5.40;65.60
5828;DHT22;42583;50.240;8.444;2023-04-25T22:09:48;5.10;66.10
5828;DHT22;42583;50.240;8.444;2023-04-25T22:24:48;5.00;67.50
5828;DHT22;42583;50.240;8.444;2023-04-25T22:39:49;5.20;68.10
5828;DHT22;42583;50.240;8.444;2023-04-25T22:54:49;5.20;69.10
5828;DHT22;42583;50.240;8.444;2023-04-25T23:09:52;5.20;69.80
5828;DHT22;42583;50.240;8.444;2023-04-25T23:24:52;5.00;70.40
5828;DHT22;42583;50.240;8.444;2023-04-25T23:39:55;4.70;70.60
5828;DHT22;42583;50.240;8.444;2023-04-25T23:54:56;4.40;73.50
